Time;durP1;ratioP1;P1;durP2;ratioP2;P2;SDS_P1;SDS_P2;PMS_P1;PMS_P2;Temp;Humidity;BMP_temperature;BMP_pressure;BME280_temperature;BME280_humidity;BME280_pressure;Samples;Min_cycle;Max_cycle;Signal;HPM_P1;HPM_P2
2023/03/23 03:02:09;;;;;;;2.40;2.20;;;13.10;99.90;;;;;;5294878;23;20234;-79
2023/03/23 03:04:40;;;;;;;3.90;3.70;;;13.20;99.90;;;;;;4966756;28;20201;-79
2023/03/23 03:07:36;;;;;;;2.53;2.33;;;13.30;99.90;;;;;;4963129;28;20214;-79
2023/03/23 03:10:11;;;;;;;2.00;1.90;;;13.30;99.90;;;;;;4971143;28;20217;-79
2023/03/23 03:12:46;;;;;;;2.40;2.30;;;13.40;99.90;;;;;;4964109;28;20969;-79
2023/03/23 03:15:23;;;;;;;1.90;1.80;;;13.40;99.90;;;;;;4963101;28;20198;-79
2023/03/23 03:17:58;;;;;;;2.07;1.90;;;13.40;99.90;;;;;;4956494;28;20202;-79
2023/03/23 03:20:27;;;;;;;2.40;2.30;;;13.50;99.90;;;;;;4965644;28;20217;-80
2023/03/23 03:22:56;;;;;;;2.40;2.30;;;13.50;99.90;;;;;;4961106;28;20284;-79
2023/03/23 03:25:24;;;;;;;2.30;2.10;;;13.50;99.90;;;;;;4969550;28;20227;-80
2023/03/23 03:27:53;;;;;;;2.40;1.90;;;13.60;99.90;;;;;;4968930;28;20574;-79
2023/03/23 03:30:34;;;;;;;2.00;1.90;;;13.60;99.90;;;;;;4969071;28;20201;-79
2023/03/23 03:33:04;;;;;;;2.37;2.20;;;13.60;99.90;;;;;;4963119;28;20199;-80
2023/03/23 03:35:32;;;;;;;2.50;2.30;;;13.60;99.90;;;;;;4971856;28;20236;-79
2023/03/23 03:38:07;;;;;;;1.97;1.87;;;13.60;99.90;;;;;;4966040;28;20190;-79
2023/03/23 03:40:34;;;;;;;2.10;2.00;;;13.60;99.90;;;;;;4963245;28;20250;-79
2023/03/23 03:43:02;;;;;;;1.97;1.87;;;13.70;99.90;;;;;;4960414;28;20198;-78
2023/03/23 03:45:28;;;;;;;2.07;1.97;;;13.60;99.90;;;;;;4968379;28;20596;-78
2023/03/23 03:47:56;;;;;;;2.00;1.90;;;13.60;99.90;;;;;;4961607;28;20286;-80
2023/03/23 03:50:24;;;;;;;1.80;1.70;;;13.60;99.90;;;;;;4955061;28;20207;-79
2023/03/23 03:52:51;;;;;;;2.13;1.93;;;13.60;99.90;;;;;;4970749;28;20198;-82
2023/03/23 03:55:18;;;;;;;1.70;1.67;;;13.60;99.90;;;;;;4971520;28;20314;-81
2023/03/23 03:57:48;;;;;;;2.00;1.80;;;13.70;99.90;;;;;;4960245;28;20226;-81
2023/03/23 04:00:32;;;;;;;2.30;2.10;;;13.70;99.90;;;;;;4947760;28;20228;-81
2023/03/23 04:02:59;;;;;;;4.60;1.90;;;13.80;99.90;;;;;;4954609;28;20197;-81
2023/03/23 04:05:59;;;;;;;2.00;1.90;;;13.90;99.90;;;;;;4939916;28;20251;-81
2023/03/23 04:08:26;;;;;;;2.17;1.97;;;13.90;99.90;;;;;;4956357;28;20226;-81
2023/03/23 04:10:53;;;;;;;2.00;1.90;;;13.90;99.90;;;;;;4952750;28;20266;-81
2023/03/23 04:13:22;;;;;;;2.20;2.00;;;13.90;99.90;;;;;;4953700;28;20201;-81
2023/03/23 04:16:11;;;;;;;2.60;1.97;;;13.90;99.90;;;;;;4945345;28;20217;-84
2023/03/23 04:18:39;;;;;;;2.97;2.30;;;13.80;99.90;;;;;;4944501;28;20258;-81
2023/03/23 04:21:08;;;;;;;2.20;2.00;;;13.80;99.90;;;;;;4950005;28;20254;-83
2023/03/23 04:23:36;;;;;;;2.13;2.00;;;13.70;99.90;;;;;;4972798;28;20199;-84
2023/03/23 04:26:04;;;;;;;3.30;2.27;;;13.60;99.90;;;;;;4966017;28;20585;-83
2023/03/23 04:28:41;;;;;;;2.40;2.20;;;13.60;99.90;;;;;;4963961;28;20202;-83
2023/03/23 04:31:44;;;;;;;2.60;2.40;;;13.50;99.90;;;;;;4931900;28;20285;-80
2023/03/23 04:34:33;;;;;;;2.80;2.43;;;13.50;99.90;;;;;;4946958;28;20688;-81
2023/03/23 04:37:03;;;;;;;2.43;2.30;;;13.40;99.90;;;;;;4959925;28;20254;-80
2023/03/23 04:39:33;;;;;;;2.67;2.47;;;13.40;99.90;;;;;;4952159;28;20209;-81
2023/03/23 04:42:03;;;;;;;4.40;2.50;;;13.40;99.90;;;;;;4957077;28;20262;-81
2023/03/23 04:44:53;;;;;;;2.60;2.40;;;13.40;99.90;;;;;;4948062;28;20234;-80
2023/03/23 04:47:20;;;;;;;2.10;2.00;;;13.40;99.90;;;;;;4948368;28;20206;-78
2023/03/23 04:49:54;;;;;;;1.90;1.80;;;13.40;99.90;;;;;;4950980;28;20203;-80
2023/03/23 04:52:37;;;;;;;2.30;2.10;;;13.40;99.90;;;;;;4951130;28;20306;-81
2023/03/23 04:55:06;;;;;;;2.27;2.03;;;13.40;99.90;;;;;;4949704;28;20567;-81
2023/03/23 04:57:34;;;;;;;2.60;2.07;;;13.40;99.90;;;;;;4953891;28;20265;-81
2023/03/23 05:00:24;;;;;;;2.50;2.30;;;13.40;99.90;;;;;;4951600;28;20637;-79
2023/03/23 05:02:55;;;;;;;1.90;1.80;;;13.40;99.90;;;;;;4949730;28;20660;-81
2023/03/23 05:05:27;;;;;;;2.10;2.00;;;13.40;99.90;;;;;;4952222;28;20210;-82
2023/03/23 05:07:57;;;;;;;2.20;2.00;;;13.40;99.90;;;;;;4955775;28;20194;-81
2023/03/23 05:10:26;;;;;;;2.20;2.10;;;13.40;99.90;;;;;;4948175;28;20199;-81
2023/03/23 05:12:56;;;;;;;2.60;2.40;;;13.40;99.90;;;;;;4953592;28;20222;-80
2023/03/23 05:15:23;;;;;;;3.07;2.40;;;13.40;99.90;;;;;;4952573;28;20203;-81
2023/03/23 05:17:55;;;;;;;2.23;2.13;;;13.40;99.90;;;;;;4969308;28;20215;-81
2023/03/23 05:20:22;;;;;;;2.50;2.30;;;13.50;99.90;;;;;;4945125;28;20212;-81
2023/03/23 05:22:56;;;;;;;2.00;1.90;;;13.50;99.90;;;;;;4949167;28;20201;-81
2023/03/23 05:25:30;;;;;;;3.87;2.50;;;13.50;99.90;;;;;;4952366;28;20204;-81
2023/03/23 05:28:05;;;;;;;2.10;2.00;;;13.50;99.90;;;;;;4952781;28;20206;-81
2023/03/23 05:30:58;;;;;;;2.07;1.90;;;13.50;99.90;;;;;;4941343;28;20270;-81
2023/03/23 05:33:29;;;;;;;2.20;2.00;;;13.50;99.90;;;;;;4951127;28;20195;-81
2023/03/23 05:36:26;;;;;;;3.20;2.20;;;13.60;99.90;;;;;;4949997;28;20205;-81
2023/03/23 05:39:12;;;;;;;2.90;2.20;;;13.60;99.90;;;;;;4950618;28;20209;-84
2023/03/23 05:42:00;;;;;;;2.30;2.10;;;13.60;99.90;;;;;;4956742;28;20720;-81
2023/03/23 05:44:39;;;;;;;2.13;2.03;;;13.60;99.90;;;;;;4944877;28;20196;-82
2023/03/23 05:47:06;;;;;;;2.00;1.90;;;13.70;99.90;;;;;;4951136;28;20229;-81
2023/03/23 05:49:36;;;;;;;2.30;2.10;;;13.60;99.90;;;;;;4959796;28;20292;-78
2023/03/23 05:52:04;;;;;;;2.17;2.03;;;13.60;99.90;;;;;;4959639;28;20283;-81
2023/03/23 05:54:31;;;;;;;2.17;2.03;;;13.60;99.90;;;;;;4953505;28;20203;-79
2023/03/23 05:56:58;;;;;;;2.00;1.90;;;13.60;99.90;;;;;;4954523;28;20199;-79
2023/03/23 05:59:46;;;;;;;2.53;2.33;;;13.60;99.90;;;;;;4955768;28;20202;-82
2023/03/23 06:02:23;;;;;;;2.20;2.10;;;13.50;99.90;;;;;;4953460;28;20242;-81
2023/03/23 06:04:57;;;;;;;2.20;2.10;;;13.50;99.90;;;;;;4948858;28;20201;-81
2023/03/23 06:07:27;;;;;;;2.60;2.40;;;13.60;99.90;;;;;;4948551;28;20208;-82
2023/03/23 06:10:00;;;;;;;2.20;2.10;;;13.60;99.90;;;;;;4967342;28;20767;-82
2023/03/23 06:12:48;;;;;;;2.73;2.53;;;13.60;99.90;;;;;;4951404;28;20301;-81
2023/03/23 06:15:27;;;;;;;2.63;2.53;;;13.60;99.90;;;;;;4951140;28;20599;-81
2023/03/23 06:18:00;;;;;;;2.83;2.63;;;13.70;99.90;;;;;;4947896;28;20254;-81
2023/03/23 06:20:35;;;;;;;2.80;2.70;;;13.70;99.90;;;;;;4946499;28;20200;-81
2023/03/23 06:23:10;;;;;;;2.90;2.70;;;13.80;99.90;;;;;;4953930;28;20741;-82
2023/03/23 06:25:38;;;;;;;3.10;2.90;;;13.90;99.90;;;;;;4943868;28;20229;-81
2023/03/23 06:28:04;;;;;;;3.80;3.50;;;13.90;99.90;;;;;;4950310;28;20695;-82
2023/03/23 06:30:36;;;;;;;3.47;3.27;;;14.00;99.90;;;;;;4949423;28;20204;-81
2023/03/23 06:33:05;;;;;;;3.33;3.13;;;14.00;99.90;;;;;;4948880;28;20204;-83
2023/03/23 06:35:58;;;;;;;4.00;3.70;;;14.10;99.90;;;;;;4948925;28;20694;-80
2023/03/23 06:38:46;;;;;;;3.30;3.10;;;14.20;99.90;;;;;;4952388;28;20287;-79
2023/03/23 06:41:15;;;;;;;3.63;3.40;;;14.40;99.90;;;;;;4945726;28;20222;-80
2023/03/23 06:43:43;;;;;;;4.20;3.80;;;14.40;99.90;;;;;;4952995;28;20262;-80
2023/03/23 06:46:17;;;;;;;4.40;4.00;;;14.50;99.90;;;;;;4945815;28;20202;-80
2023/03/23 06:49:04;;;;;;;5.20;4.80;;;14.50;99.90;;;;;;4942958;28;20233;-80
2023/03/23 06:51:40;;;;;;;4.83;4.40;;;14.50;99.90;;;;;;4951035;28;20247;-80
2023/03/23 06:54:07;;;;;;;4.30;3.90;;;14.40;99.90;;;;;;4952863;28;20250;-80
2023/03/23 06:56:39;;;;;;;3.70;3.47;;;14.50;99.90;;;;;;4950127;28;20580;-79
2023/03/23 06:59:10;;;;;;;3.53;3.33;;;14.50;99.90;;;;;;4950268;28;20214;-81
2023/03/23 07:01:38;;;;;;;3.43;3.23;;;14.60;99.90;;;;;;4950529;28;20288;-80
2023/03/23 07:04:06;;;;;;;2.70;2.50;;;14.80;99.90;;;;;;4956457;28;20677;-80
2023/03/23 07:06:48;;;;;;;3.10;2.90;;;14.90;99.90;;;;;;4952172;28;20210;-80
2023/03/23 07:09:15;;;;;;;2.40;2.20;;;15.00;99.90;;;;;;4957229;28;20206;-80
2023/03/23 07:11:43;;;;;;;2.60;2.40;;;15.10;99.90;;;;;;4953079;28;20232;-80
2023/03/23 07:14:21;;;;;;;2.47;2.27;;;15.10;99.90;;;;;;4943156;28;20205;-80
2023/03/23 07:16:50;;;;;;;2.33;2.13;;;15.20;99.90;;;;;;4956395;28;20272;-81
2023/03/23 07:19:17;;;;;;;2.17;2.07;;;15.20;99.90;;;;;;4959407;28;20258;-81
2023/03/23 07:21:44;;;;;;;4.00;2.50;;;15.10;99.90;;;;;;4960708;28;20783;-82
2023/03/23 07:24:13;;;;;;;2.30;2.10;;;15.10;99.90;;;;;;4960646;28;20675;-83
2023/03/23 07:26:53;;;;;;;3.30;2.23;;;15.20;99.90;;;;;;4974206;28;20204;-83
2023/03/23 07:29:20;;;;;;;3.40;2.37;;;15.20;99.90;;;;;;4975580;28;20289;-80
2023/03/23 07:31:53;;;;;;;2.60;2.40;;;15.20;99.90;;;;;;4950461;28;20218;-83
2023/03/23 07:34:20;;;;;;;2.40;2.20;;;15.20;99.90;;;;;;4946456;28;20202;-84
2023/03/23 07:37:02;;;;;;;2.20;2.10;;;15.20;99.90;;;;;;4947798;28;20669;-82
2023/03/23 07:39:31;;;;;;;3.03;2.70;;;15.10;99.90;;;;;;4952152;28;20236;-82
2023/03/23 07:42:00;;;;;;;2.60;2.40;;;15.10;99.90;;;;;;4946228;28;20222;-82
2023/03/23 07:44:42;;;;;;;2.70;2.50;;;15.00;99.90;;;;;;4952592;28;20253;-82
2023/03/23 07:47:13;;;;;;;2.73;2.53;;;15.00;99.90;;;;;;4949373;28;20201;-81
2023/03/23 07:49:40;;;;;;;3.40;3.10;;;15.00;99.90;;;;;;4957509;28;20229;-82
2023/03/23 07:52:17;;;;;;;3.97;3.67;;;15.10;99.90;;;;;;4945391;28;20234;-80
2023/03/23 07:54:44;;;;;;;4.10;3.70;;;15.10;99.90;;;;;;4950685;28;20263;-83
2023/03/23 07:57:24;;;;;;;3.60;3.40;;;15.20;99.90;;;;;;4945564;28;20258;-80
2023/03/23 07:59:53;;;;;;;3.93;3.63;;;15.30;99.90;;;;;;4953543;28;20212;-79
2023/03/23 08:02:21;;;;;;;3.80;3.50;;;15.40;99.90;;;;;;4946992;28;20231;-80
2023/03/23 08:05:13;;;;;;;2.80;2.60;;;15.60;99.90;;;;;;4948840;28;20208;-80
2023/03/23 08:08:09;;;;;;;3.00;2.70;;;15.80;99.90;;;;;;4943640;28;20308;-79
2023/03/23 08:10:42;;;;;;;2.67;2.47;;;16.00;99.90;;;;;;4952805;28;20229;-83
2023/03/23 08:13:41;;;;;;;3.67;3.00;;;16.10;99.90;;;;;;4950922;28;20294;-79
2023/03/23 08:16:27;;;;;;;3.80;3.33;;;16.40;99.90;;;;;;4949922;28;20602;-80
2023/03/23 08:19:15;;;;;;;2.50;2.30;;;16.60;99.90;;;;;;4939933;28;20206;-82
2023/03/23 08:21:53;;;;;;;3.30;3.00;;;16.80;99.90;;;;;;4949326;28;20269;-79
2023/03/23 08:24:27;;;;;;;3.10;2.90;;;16.90;99.90;;;;;;4950717;28;20209;-79
2023/03/23 08:27:07;;;;;;;5.13;3.00;;;17.00;99.90;;;;;;4952404;28;20225;-82
2023/03/23 08:29:51;;;;;;;3.43;3.13;;;17.00;99.90;;;;;;4949338;28;20203;-81
2023/03/23 08:32:45;;;;;;;3.30;3.00;;;17.10;99.90;;;;;;4952451;28;20309;-79
2023/03/23 08:35:35;;;;;;;3.17;2.97;;;17.30;99.90;;;;;;4957443;28;20223;-82
2023/03/23 08:38:32;;;;;;;2.97;2.40;;;17.40;99.90;;;;;;4953001;28;20211;-79
2023/03/23 08:41:14;;;;;;;2.53;2.33;;;17.60;99.90;;;;;;4949717;28;20237;-80
2023/03/23 08:43:57;;;;;;;2.60;2.40;;;17.80;99.90;;;;;;4951373;28;20197;-80
2023/03/23 08:46:49;;;;;;;2.90;2.70;;;17.80;99.90;;;;;;4954969;28;20265;-79
2023/03/23 08:49:36;;;;;;;3.33;3.03;;;17.80;99.90;;;;;;4950909;28;20212;-79
2023/03/23 08:52:15;;;;;;;3.53;3.20;;;17.60;99.90;;;;;;4950357;28;20220;-79
2023/03/23 08:55:18;;;;;;;4.57;4.13;;;17.40;99.90;;;;;;4891928;29;20206;-78
2023/03/23 08:58:04;;;;;;;4.17;3.87;;;17.20;99.90;;;;;;4942683;28;20216;-79
2023/03/23 09:00:49;;;;;;;4.20;3.90;;;17.20;99.90;;;;;;4945665;28;20232;-82
2023/03/23 09:03:29;;;;;;;4.90;4.60;;;17.10;99.90;;;;;;4950548;28;20231;-79
2023/03/23 09:06:12;;;;;;;5.27;4.87;;;17.20;99.90;;;;;;4947252;28;20270;-79
2023/03/23 09:08:47;;;;;;;5.40;5.00;;;17.20;99.90;;;;;;4951342;28;20680;-80
2023/03/23 09:11:14;;;;;;;5.77;5.30;;;17.20;99.90;;;;;;4948395;28;20235;-80
2023/03/23 09:13:41;;;;;;;6.47;5.97;;;17.10;99.90;;;;;;4953860;28;20252;-78
2023/03/23 09:16:09;;;;;;;7.00;6.50;;;17.10;99.90;;;;;;4955842;28;20228;-79
2023/03/23 09:18:36;;;;;;;7.27;6.80;;;17.10;99.90;;;;;;4973168;28;20207;-78
2023/03/23 09:21:04;;;;;;;8.57;7.87;;;17.20;99.90;;;;;;4983791;28;20216;-81
2023/03/23 09:23:31;;;;;;;7.37;6.87;;;17.30;99.90;;;;;;4968585;28;20721;-77
2023/03/23 09:26:01;;;;;;;8.60;8.07;;;17.30;99.90;;;;;;4977065;28;20677;-77
2023/03/23 09:28:28;;;;;;;7.30;6.83;;;17.40;99.90;;;;;;4968322;28;20207;-77
2023/03/23 09:30:57;;;;;;;6.50;6.00;;;17.40;99.90;;;;;;4964728;28;20255;-78
2023/03/23 09:33:24;;;;;;;7.40;7.00;;;17.40;99.90;;;;;;4963457;28;20226;-78
2023/03/23 09:35:51;;;;;;;5.97;5.67;;;17.50;99.90;;;;;;4963321;28;20208;-77
2023/03/23 09:38:19;;;;;;;4.67;4.37;;;17.60;99.90;;;;;;4970470;28;20221;-77
2023/03/23 09:40:48;;;;;;;4.07;3.77;;;17.60;99.90;;;;;;4968588;28;20237;-78
2023/03/23 09:43:36;;;;;;;4.30;4.00;;;17.80;99.90;;;;;;4973711;28;20223;-77
2023/03/23 09:46:17;;;;;;;4.20;3.90;;;17.70;99.90;;;;;;4974411;28;20207;-78
2023/03/23 09:48:50;;;;;;;6.10;5.70;;;17.70;99.90;;;;;;4971611;28;20765;-77
2023/03/23 09:51:29;;;;;;;7.50;7.00;;;17.60;99.90;;;;;;4964112;28;20228;-78
2023/03/23 09:53:59;;;;;;;7.43;7.03;;;17.40;99.90;;;;;;4960895;28;20256;-77
2023/03/23 09:56:27;;;;;;;2.93;2.67;;;17.30;99.90;;;;;;4969614;28;20215;-78
2023/03/23 09:59:00;;;;;;;2.23;2.00;;;17.20;99.90;;;;;;4969041;28;20672;-78
2023/03/23 10:01:33;;;;;;;2.53;2.30;;;17.40;99.90;;;;;;4966645;28;20240;-77
2023/03/23 10:04:06;;;;;;;7.10;6.50;;;17.60;99.90;;;;;;4964616;28;20730;-77
2023/03/23 10:06:33;;;;;;;4.60;4.30;;;18.00;99.90;;;;;;4966251;28;20232;-78
2023/03/23 10:09:05;;;;;;;5.40;4.90;;;18.20;99.90;;;;;;4971610;28;20734;-77
2023/03/23 10:11:42;;;;;;;4.93;4.50;;;18.30;99.90;;;;;;4951790;28;20232;-77
2023/03/23 10:14:22;;;;;;;2.50;2.30;;;18.40;99.90;;;;;;4962927;28;20545;-78
2023/03/23 10:17:01;;;;;;;2.40;2.20;;;18.60;99.90;;;;;;4962157;28;20267;-77
2023/03/23 10:19:33;;;;;;;3.83;3.63;;;18.80;99.90;;;;;;4961385;28;20206;-77
2023/03/23 10:22:06;;;;;;;3.10;2.80;;;18.90;99.90;;;;;;4959944;28;20225;-78
2023/03/23 10:24:36;;;;;;;4.47;3.83;;;18.90;99.90;;;;;;4968452;28;20699;-77
2023/03/23 10:27:10;;;;;;;4.90;4.60;;;18.90;99.90;;;;;;4965141;28;20300;-79
2023/03/23 10:29:43;;;;;;;7.10;6.60;;;19.00;99.90;;;;;;4964157;28;20608;-80
2023/03/23 10:32:14;;;;;;;6.73;6.33;;;19.10;99.90;;;;;;4951147;28;20222;-80
2023/03/23 10:34:45;;;;;;;6.70;6.30;;;19.10;99.90;;;;;;4964605;28;20207;-80
2023/03/23 10:37:15;;;;;;;7.20;6.70;;;19.10;99.90;;;;;;4957485;28;20200;-79
2023/03/23 10:39:49;;;;;;;7.00;6.53;;;19.00;99.90;;;;;;4963885;28;20203;-79
2023/03/23 10:42:24;;;;;;;7.20;6.70;;;18.90;99.90;;;;;;4962021;28;20230;-79
2023/03/23 10:44:53;;;;;;;7.20;6.70;;;18.90;99.90;;;;;;4972693;28;20212;-79
2023/03/23 10:47:20;;;;;;;6.60;6.20;;;18.90;99.90;;;;;;4973053;28;20204;-80
2023/03/23 10:49:50;;;;;;;6.70;6.30;;;18.90;99.90;;;;;;4966465;28;20201;-79
2023/03/23 10:52:27;;;;;;;6.50;6.10;;;18.80;99.90;;;;;;4964970;28;20217;-80
2023/03/23 10:54:57;;;;;;;7.23;6.83;;;18.80;99.90;;;;;;4972318;28;20202;-80
2023/03/23 10:57:28;;;;;;;6.67;6.07;;;18.80;99.90;;;;;;4977506;28;20206;-79
2023/03/23 11:00:05;;;;;;;6.77;6.27;;;18.70;99.90;;;;;;4971418;28;20704;-80
2023/03/23 11:02:36;;;;;;;6.40;6.00;;;18.60;99.90;;;;;;4976410;28;20669;-80
2023/03/23 11:05:07;;;;;;;6.50;6.10;;;18.60;99.90;;;;;;4970618;28;20260;-79
2023/03/23 11:07:36;;;;;;;6.43;6.03;;;18.70;99.90;;;;;;4969512;28;20202;-80
2023/03/23 11:10:20;;;;;;;7.00;6.40;;;18.90;99.90;;;;;;4968321;28;20207;-80
2023/03/23 11:12:47;;;;;;;6.93;6.53;;;19.10;99.90;;;;;;4971009;28;20199;-80
2023/03/23 11:15:30;;;;;;;7.00;6.60;;;19.20;99.90;;;;;;4972323;28;20202;-80
2023/03/23 11:18:02;;;;;;;7.40;6.90;;;19.30;99.90;;;;;;4975613;28;20207;-79
2023/03/23 11:20:35;;;;;;;6.87;6.47;;;19.40;99.90;;;;;;4975288;28;20228;-79
2023/03/23 11:23:08;;;;;;;6.90;6.40;;;19.50;99.90;;;;;;4982896;28;20271;-79
2023/03/23 11:25:35;;;;;;;6.90;6.40;;;19.30;99.90;;;;;;4975093;28;20253;-79
2023/03/23 11:28:02;;;;;;;7.03;6.63;;;19.30;99.90;;;;;;4974378;28;20250;-79
2023/03/23 11:30:31;;;;;;;6.90;6.50;;;19.40;99.90;;;;;;4977682;28;20739;-79
2023/03/23 11:33:01;;;;;;;6.90;6.50;;;19.40;99.90;;;;;;4973553;28;20201;-80
2023/03/23 11:35:30;;;;;;;7.20;6.70;;;19.40;99.90;;;;;;4972930;28;20206;-79
2023/03/23 11:37:58;;;;;;;6.80;6.30;;;19.50;99.90;;;;;;4971030;28;20670;-80
2023/03/23 11:40:27;;;;;;;7.03;6.57;;;19.50;99.90;;;;;;4973110;28;20283;-79
2023/03/23 11:43:00;;;;;;;7.10;6.60;;;19.70;99.90;;;;;;4982915;28;20257;-80
2023/03/23 11:45:36;;;;;;;6.90;6.50;;;19.70;99.90;;;;;;4971774;28;20210;-79
2023/03/23 11:48:13;;;;;;;7.07;6.57;;;19.80;99.90;;;;;;4964841;28;20201;-80
2023/03/23 11:50:51;;;;;;;7.33;6.83;;;19.90;99.90;;;;;;4976000;28;20202;-79
2023/03/23 11:53:28;;;;;;;7.10;6.60;;;19.80;99.90;;;;;;4963715;28;20193;-79
2023/03/23 11:56:05;;;;;;;7.20;6.70;;;19.90;99.90;;;;;;4965119;28;20212;-80
2023/03/23 11:58:32;;;;;;;7.23;6.77;;;19.80;99.90;;;;;;4972811;28;20202;-79
2023/03/23 12:01:06;;;;;;;7.30;6.80;;;19.90;99.90;;;;;;4971902;28;20257;-80
2023/03/23 12:04:05;;;;;;;7.13;6.73;;;20.00;99.90;;;;;;4965388;28;20198;-79
2023/03/23 12:06:43;;;;;;;6.97;6.57;;;20.00;99.90;;;;;;4963142;28;20194;-79
2023/03/23 12:09:28;;;;;;;6.80;6.40;;;20.00;99.90;;;;;;4976018;28;20281;-79
2023/03/23 12:12:09;;;;;;;6.77;6.37;;;20.00;99.90;;;;;;4974005;28;20243;-79
2023/03/23 12:14:45;;;;;;;6.60;6.20;;;20.10;99.90;;;;;;4960658;28;20199;-80
2023/03/23 12:17:23;;;;;;;6.90;6.40;;;20.10;99.90;;;;;;4954534;28;20194;-80
2023/03/23 12:20:10;;;;;;;7.13;6.63;;;20.10;99.90;;;;;;4960995;28;20213;-79
2023/03/23 12:22:55;;;;;;;6.90;6.50;;;20.20;99.90;;;;;;4965453;28;20210;-79
2023/03/23 12:25:43;;;;;;;7.10;6.60;;;20.10;99.90;;;;;;4975607;28;20220;-79
2023/03/23 12:28:20;;;;;;;7.47;6.83;;;20.20;99.90;;;;;;4969948;28;20237;-79
2023/03/23 12:30:53;;;;;;;7.17;6.53;;;20.40;99.90;;;;;;4969152;28;20222;-81
2023/03/23 12:33:37;;;;;;;6.67;6.27;;;20.40;99.90;;;;;;4970030;28;20245;-81
2023/03/23 12:36:14;;;;;;;6.30;5.90;;;20.30;99.90;;;;;;4978850;28;20195;-82
2023/03/23 12:38:52;;;;;;;6.90;6.50;;;20.20;99.90;;;;;;4981550;28;20486;-81
2023/03/23 12:41:23;;;;;;;6.90;6.40;;;20.00;99.90;;;;;;4959759;28;20222;-80
2023/03/23 12:43:54;;;;;;;6.77;6.27;;;19.90;99.90;;;;;;4979194;28;20218;-83
2023/03/23 12:46:44;;;;;;;6.60;6.20;;;19.70;99.90;;;;;;4974862;28;20198;-81
2023/03/23 12:49:18;;;;;;;7.47;6.77;;;19.50;99.90;;;;;;4986670;28;20217;-82
2023/03/23 12:51:50;;;;;;;7.00;6.50;;;19.30;99.90;;;;;;4972312;28;20560;-81
2023/03/23 12:54:22;;;;;;;6.70;6.17;;;19.30;99.90;;;;;;4975453;28;20191;-79
2023/03/23 12:56:53;;;;;;;7.80;7.20;;;19.30;99.90;;;;;;4971250;28;20209;-80
2023/03/23 12:59:26;;;;;;;7.37;6.90;;;19.30;99.90;;;;;;4965324;28;20265;-81
2023/03/23 13:02:00;;;;;;;7.60;7.00;;;19.20;99.90;;;;;;4962516;28;20721;-80
2023/03/23 13:04:34;;;;;;;7.20;6.70;;;19.20;99.90;;;;;;4970142;28;20320;-81
2023/03/23 13:07:04;;;;;;;6.90;6.50;;;19.30;99.90;;;;;;4968998;28;20202;-80
2023/03/23 13:09:48;;;;;;;7.87;7.20;;;19.40;99.90;;;;;;4973359;28;20224;-79
2023/03/23 13:12:17;;;;;;;6.97;6.57;;;19.50;99.90;;;;;;4977037;28;20213;-81
2023/03/23 13:14:51;;;;;;;6.90;6.50;;;19.50;99.90;;;;;;4970939;28;20194;-81
2023/03/23 13:17:36;;;;;;;7.07;6.47;;;19.70;99.90;;;;;;4964475;28;20642;-81
2023/03/23 13:20:31;;;;;;;6.83;6.43;;;19.80;99.90;;;;;;4963249;28;20631;-80
2023/03/23 13:23:05;;;;;;;6.87;6.47;;;19.80;99.90;;;;;;4963190;28;20202;-80
2023/03/23 13:25:48;;;;;;;6.90;6.50;;;19.70;99.90;;;;;;4968669;28;20193;-80
2023/03/23 13:28:20;;;;;;;6.90;6.50;;;19.70;99.90;;;;;;4949129;28;20199;-80
2023/03/23 13:30:58;;;;;;;6.70;6.30;;;19.80;99.90;;;;;;4959557;28;20218;-80
2023/03/23 13:33:26;;;;;;;7.20;6.70;;;19.80;99.90;;;;;;4956483;28;20245;-80
2023/03/23 13:35:54;;;;;;;7.13;6.63;;;20.00;99.90;;;;;;4968371;28;20203;-80
2023/03/23 13:38:25;;;;;;;6.83;6.40;;;20.00;99.90;;;;;;4958843;28;20201;-80
2023/03/23 13:40:53;;;;;;;6.83;6.43;;;20.00;99.90;;;;;;4966936;28;20349;-79
2023/03/23 13:43:28;;;;;;;6.63;6.17;;;20.00;99.90;;;;;;4959638;28;20288;-79
2023/03/23 13:45:56;;;;;;;6.60;6.20;;;19.80;99.90;;;;;;4959790;28;20205;-76
2023/03/23 13:48:25;;;;;;;7.10;6.60;;;19.70;99.90;;;;;;4964843;28;20656;-77
2023/03/23 13:50:58;;;;;;;7.00;6.50;;;19.70;99.90;;;;;;4964068;28;20724;-76
2023/03/23 13:53:32;;;;;;;6.70;6.20;;;19.70;99.90;;;;;;4962001;28;20903;-77
2023/03/23 13:56:18;;;;;;;7.03;6.50;;;19.60;99.90;;;;;;4959245;28;20203;-76
2023/03/23 13:58:47;;;;;;;6.30;5.90;;;19.70;99.90;;;;;;4960141;28;20195;-76
2023/03/23 14:01:17;;;;;;;6.30;5.90;;;19.60;99.90;;;;;;4967509;28;20229;-77
2023/03/23 14:03:50;;;;;;;6.47;6.07;;;19.60;99.90;;;;;;4963048;28;20210;-77
2023/03/23 14:06:21;;;;;;;6.90;6.40;;;19.60;99.90;;;;;;4957982;28;20253;-77
2023/03/23 14:09:09;;;;;;;6.90;6.50;;;19.50;99.90;;;;;;4968333;28;20214;-77
2023/03/23 14:11:49;;;;;;;7.07;6.50;;;19.40;99.90;;;;;;4957328;28;20306;-77
2023/03/23 14:14:23;;;;;;;6.80;6.30;;;19.20;99.90;;;;;;4964372;28;20411;-76
2023/03/23 14:16:52;;;;;;;7.40;6.80;;;19.00;99.90;;;;;;4957396;28;20194;-76
2023/03/23 14:19:23;;;;;;;7.40;6.80;;;18.90;99.90;;;;;;4958369;28;20208;-76
2023/03/23 14:21:54;;;;;;;7.32;6.72;;;18.80;99.90;;;;;;4953835;28;20459;-78
2023/03/23 14:24:24;;;;;;;7.13;6.63;;;18.70;99.90;;;;;;4960313;28;20288;-79
2023/03/23 14:26:53;;;;;;;7.13;6.63;;;18.70;99.90;;;;;;4968750;28;20202;-79
2023/03/23 14:29:21;;;;;;;6.97;6.57;;;18.70;99.90;;;;;;4968608;28;20229;-82
2023/03/23 14:31:53;;;;;;;7.17;6.67;;;18.60;99.90;;;;;;4970914;28;20279;-83
2023/03/23 14:34:22;;;;;;;7.70;7.10;;;18.60;99.90;;;;;;4979853;28;20206;-85
2023/03/23 14:36:50;;;;;;;7.10;6.60;;;18.60;99.90;;;;;;4974853;28;20597;-83
2023/03/23 14:39:23;;;;;;;7.50;6.80;;;18.50;99.90;;;;;;4969668;28;20221;-83
2023/03/23 14:41:50;;;;;;;7.07;6.60;;;18.50;99.90;;;;;;4976113;28;20241;-76
2023/03/23 14:44:29;;;;;;;7.17;6.60;;;18.50;99.90;;;;;;4953325;28;20230;-80
2023/03/23 14:46:58;;;;;;;7.00;6.50;;;18.50;99.90;;;;;;4955059;28;20257;-79
2023/03/23 14:49:30;;;;;;;6.70;6.30;;;18.50;99.90;;;;;;4946774;28;20197;-80
2023/03/23 14:52:04;;;;;;;7.00;6.50;;;18.60;99.90;;;;;;4965488;28;20227;-79
2023/03/23 14:54:32;;;;;;;6.57;6.10;;;18.60;99.90;;;;;;4949120;28;20197;-81
2023/03/23 14:57:10;;;;;;;6.87;6.40;;;18.50;99.90;;;;;;4959292;28;20202;-77
2023/03/23 14:59:36;;;;;;;6.90;6.50;;;18.50;99.90;;;;;;4957798;28;20229;-77
2023/03/23 15:02:04;;;;;;;6.70;6.20;;;18.40;99.90;;;;;;4948313;28;20751;-76
2023/03/23 15:04:31;;;;;;;6.90;6.50;;;18.40;99.90;;;;;;4956314;28;20281;-76
2023/03/23 15:07:03;;;;;;;7.25;6.72;;;18.30;99.90;;;;;;4947537;28;20445;-77
2023/03/23 15:09:31;;;;;;;7.07;6.60;;;18.30;99.90;;;;;;4941401;28;20202;-84
2023/03/23 15:12:01;;;;;;;7.10;6.60;;;18.20;99.90;;;;;;4950568;28;20226;-82
2023/03/23 15:14:30;;;;;;;7.10;6.60;;;18.30;99.90;;;;;;4943814;28;20202;-82
2023/03/23 15:16:59;;;;;;;7.03;6.57;;;18.30;99.90;;;;;;4956358;28;20297;-75
2023/03/23 15:19:28;;;;;;;7.40;6.90;;;18.20;99.90;;;;;;4943307;28;20199;-77
2023/03/23 15:21:57;;;;;;;7.23;6.73;;;18.20;99.90;;;;;;4954736;28;20214;-76
2023/03/23 15:24:33;;;;;;;7.00;6.50;;;18.20;99.90;;;;;;4951956;28;20245;-76
2023/03/23 15:27:11;;;;;;;7.07;6.57;;;18.20;99.90;;;;;;4946421;28;20205;-76
2023/03/23 15:29:51;;;;;;;7.33;6.83;;;18.10;99.90;;;;;;4955675;28;20194;-76
2023/03/23 15:32:23;;;;;;;7.10;6.60;;;18.10;99.90;;;;;;4949603;28;20871;-77
2023/03/23 15:34:50;;;;;;;6.97;6.47;;;18.10;99.90;;;;;;4955811;28;20668;-76
2023/03/23 15:37:21;;;;;;;6.70;6.20;;;18.10;99.90;;;;;;4950436;28;20207;-76
2023/03/23 15:39:51;;;;;;;6.57;6.07;;;18.00;99.90;;;;;;4950766;28;20207;-81
2023/03/23 15:42:25;;;;;;;6.40;6.00;;;18.00;99.90;;;;;;4955825;28;20353;-81
2023/03/23 15:45:04;;;;;;;6.97;6.47;;;18.00;99.90;;;;;;4948902;28;20226;-82
2023/03/23 15:47:44;;;;;;;6.70;6.30;;;18.00;99.90;;;;;;4948232;28;20190;-83
2023/03/23 15:50:14;;;;;;;6.90;6.40;;;17.90;99.90;;;;;;4951634;28;20205;-82
2023/03/23 15:52:42;;;;;;;6.80;6.30;;;17.80;99.90;;;;;;4952265;28;20652;-83
2023/03/23 15:55:28;;;;;;;6.60;6.20;;;17.80;99.90;;;;;;4954314;28;20270;-83
2023/03/23 15:57:57;;;;;;;6.30;5.90;;;17.70;99.90;;;;;;4960768;28;20206;-83
2023/03/23 16:00:26;;;;;;;5.03;4.70;;;17.70;99.90;;;;;;4949179;28;20202;-85
2023/03/23 16:02:56;;;;;;;5.50;5.10;;;17.60;99.90;;;;;;4953502;28;20634;-82
2023/03/23 16:05:23;;;;;;;5.53;4.90;;;17.50;99.90;;;;;;4963660;28;20427;-80
2023/03/23 16:07:50;;;;;;;4.50;4.20;;;17.40;99.90;;;;;;4960763;28;20257;-80
2023/03/23 16:10:19;;;;;;;4.70;4.30;;;17.30;99.90;;;;;;4956165;28;20315;-80
2023/03/23 16:12:47;;;;;;;3.87;3.57;;;17.20;99.90;;;;;;4950627;28;20245;-80
2023/03/23 16:15:15;;;;;;;3.50;3.20;;;17.20;99.90;;;;;;4956278;28;20199;-80
2023/03/23 16:17:43;;;;;;;4.20;3.90;;;17.20;99.90;;;;;;4951223;28;20201;-81
2023/03/23 16:20:13;;;;;;;4.13;3.77;;;17.10;99.90;;;;;;4947463;28;20204;-80
2023/03/23 16:22:40;;;;;;;3.93;3.63;;;17.10;99.90;;;;;;4951082;28;20280;-81
2023/03/23 16:25:08;;;;;;;4.07;3.77;;;17.10;99.90;;;;;;4957138;28;20232;-80